Time;durP1;ratioP1;P1;durP2;ratioP2;P2;SDS_P1;SDS_P2;PMS_P1;PMS_P2;Temp;Humidity;BMP_temperature;BMP_pressure;BME280_temperature;BME280_humidity;BME280_pressure;Samples;Min_cycle;Max_cycle;Signal;HPM_P1;HPM_P2
2021/11/22 00:01:21;;;;;;;9.00;2.35;;;;;;;12.87;47.74;101620.50;4994595;28;20088;-63
2021/11/22 00:03:47;;;;;;;14.60;2.75;;;;;;;12.87;47.84;101618.63;4994109;28;20116;-61
2021/11/22 00:06:13;;;;;;;9.30;2.72;;;;;;;12.88;47.87;101617.66;4978059;28;20074;-61
2021/11/22 00:08:39;;;;;;;9.88;3.20;;;;;;;12.89;47.57;101624.75;5010733;28;20443;-61
2021/11/22 00:11:05;;;;;;;9.85;2.13;;;;;;;12.91;48.26;101627.31;4995529;28;20041;-62
2021/11/22 00:13:30;;;;;;;10.23;1.92;;;;;;;12.92;47.60;101631.72;4995930;28;20038;-63
2021/11/22 00:15:55;;;;;;;8.15;2.88;;;;;;;12.91;48.26;101628.19;4995925;28;20084;-61
2021/11/22 00:18:22;;;;;;;5.82;2.35;;;;;;;12.94;47.45;101635.13;5010424;28;20045;-62
2021/11/22 00:20:48;;;;;;;11.93;2.55;;;;;;;12.94;47.57;101637.81;4994115;28;20026;-61
2021/11/22 00:23:13;;;;;;;8.35;2.35;;;;;;;12.91;48.14;101633.56;4995424;28;20038;-62
2021/11/22 00:25:39;;;;;;;7.55;1.90;;;;;;;12.94;47.03;101630.63;4995263;28;20145;-63
2021/11/22 00:28:04;;;;;;;6.88;2.05;;;;;;;12.90;47.82;101634.53;4995169;28;20062;-62
2021/11/22 00:30:30;;;;;;;7.78;2.20;;;;;;;12.91;47.41;101633.56;5010654;28;20053;-61
2021/11/22 00:32:58;;;;;;;11.90;2.53;;;;;;;12.91;47.64;101633.56;4994548;28;20489;-62
2021/11/22 00:35:31;;;;;;;6.60;2.05;;;;;;;12.79;47.41;101615.72;4994972;28;20042;-61
2021/11/22 00:37:57;;;;;;;6.80;1.52;;;;;;;12.89;47.22;101646.28;4994086;28;20030;-61
2021/11/22 00:40:22;;;;;;;4.63;1.60;;;;;;;12.87;48.08;101645.53;4993929;28;20197;-62
2021/11/22 00:42:48;;;;;;;6.45;2.10;;;;;;;12.85;47.56;101647.50;4976925;28;20026;-61
2021/11/22 00:45:14;;;;;;;6.07;1.90;;;;;;;12.88;47.18;101649.94;4993154;28;20053;-62
2021/11/22 00:47:40;;;;;;;4.82;1.88;;;;;;;12.88;47.50;101655.31;4994911;28;20034;-61
2021/11/22 00:50:06;;;;;;;8.00;2.08;;;;;;;12.86;47.88;101662.66;4994469;28;20026;-62
2021/11/22 00:52:31;;;;;;;7.40;1.50;;;;;;;12.86;47.93;101662.66;4992398;28;20376;-61
2021/11/22 00:54:57;;;;;;;8.57;1.98;;;;;;;12.85;48.15;101666.31;4994625;28;20037;-61
2021/11/22 00:57:28;;;;;;;7.22;1.83;;;;;;;12.86;48.07;101659.97;4992851;28;20034;-62
2021/11/22 00:59:54;;;;;;;8.20;1.65;;;;;;;12.84;47.22;101670.00;4993180;28;20403;-62
2021/11/22 01:02:20;;;;;;;6.20;1.73;;;;;;;12.80;47.55;101671.22;4993991;28;20030;-62
2021/11/22 01:04:45;;;;;;;10.77;2.83;;;;;;;12.79;48.18;101667.66;4992985;28;20022;-62
2021/11/22 01:07:11;;;;;;;7.93;1.98;;;;;;;12.77;48.22;101679.50;4994052;28;20097;-61
2021/11/22 01:09:36;;;;;;;4.57;1.50;;;;;;;12.79;48.02;101685.63;4994086;28;20034;-62
2021/11/22 01:12:02;;;;;;;6.78;1.85;;;;;;;12.77;47.67;101690.28;4992834;28;20030;-61
2021/11/22 01:14:27;;;;;;;4.07;2.78;;;;;;;12.68;47.90;101674.84;4992384;28;20041;-62
2021/11/22 01:16:53;;;;;;;5.38;1.60;;;;;;;12.72;48.36;101692.47;4976330;28;20034;-63
2021/11/22 01:19:18;;;;;;;7.25;1.75;;;;;;;12.70;47.53;101692.56;4993690;28;20062;-62
2021/11/22 01:21:45;;;;;;;5.10;1.13;;;;;;;12.69;48.34;101703.47;5008878;28;20022;-61
2021/11/22 01:24:10;;;;;;;3.83;1.08;;;;;;;12.67;48.41;101708.13;4992533;28;20097;-61
2021/11/22 01:26:37;;;;;;;6.65;1.52;;;;;;;12.66;48.46;101706.38;4990958;28;20074;-62
2021/11/22 01:29:03;;;;;;;6.47;1.40;;;;;;;12.63;48.56;101703.94;4992725;28;20531;-62
2021/11/22 01:31:28;;;;;;;6.13;1.55;;;;;;;12.61;48.58;101708.59;5008870;28;20106;-61
2021/11/22 01:33:53;;;;;;;6.68;1.60;;;;;;;12.66;48.68;101722.53;4992635;28;20038;-62
2021/11/22 01:36:19;;;;;;;2.78;1.60;;;;;;;12.65;47.69;101723.47;4993566;28;20026;-60
2021/11/22 01:38:44;;;;;;;2.22;1.67;;;;;;;12.61;48.61;101727.41;4992169;28;20403;-61
2021/11/22 01:41:10;;;;;;;3.15;1.38;;;;;;;12.64;48.63;101732.53;4992159;28;20121;-63
2021/11/22 01:43:35;;;;;;;4.32;1.63;;;;;;;12.58;48.39;101727.66;4993522;28;20105;-61
2021/11/22 01:46:01;;;;;;;5.25;1.17;;;;;;;12.61;47.94;101732.78;4992441;28;20037;-62
2021/11/22 01:48:27;;;;;;;5.70;1.52;;;;;;;12.61;48.00;101744.41;4993831;28;20113;-62
2021/11/22 01:50:53;;;;;;;5.32;1.55;;;;;;;12.61;48.31;101747.09;4993492;28;20096;-61
2021/11/22 01:53:19;;;;;;;3.63;1.05;;;;;;;12.60;47.92;101747.19;4993800;28;20034;-63
2021/11/22 01:55:45;;;;;;;3.47;1.33;;;;;;;12.59;47.32;101756.25;4993736;28;20065;-62
2021/11/22 01:58:11;;;;;;;5.30;1.25;;;;;;;12.57;48.53;101752.78;4993233;28;20495;-61
2021/11/22 02:00:49;;;;;;;3.97;1.30;;;;;;;12.56;48.00;101762.69;4993686;28;20045;-61
2021/11/22 02:03:15;;;;;;;4.50;1.40;;;;;;;12.57;47.86;101763.53;4995239;28;20030;-61
2021/11/22 02:05:41;;;;;;;3.00;1.38;;;;;;;12.58;48.11;101766.13;5000928;28;20030;-61
2021/11/22 02:08:07;;;;;;;4.28;1.65;;;;;;;12.57;48.41;101768.91;4999877;28;20108;-62
2021/11/22 02:10:33;;;;;;;9.85;1.60;;;;;;;12.56;48.56;101769.91;5000448;28;20062;-61
2021/11/22 02:12:59;;;;;;;5.90;1.67;;;;;;;12.52;48.02;101765.75;4999812;28;20104;-61
2021/11/22 02:15:25;;;;;;;9.00;1.90;;;;;;;12.51;48.68;101762.19;5000006;28;20034;-62
2021/11/22 02:17:51;;;;;;;6.68;1.33;;;;;;;12.56;47.66;101775.28;5001005;28;20041;-61
2021/11/22 02:20:20;;;;;;;2.03;1.23;;;;;;;12.53;47.84;101787.13;5016104;28;20057;-62
2021/11/22 02:22:48;;;;;;;8.82;1.80;;;;;;;12.53;47.68;101789.81;4999603;28;20040;-61
2021/11/22 02:25:16;;;;;;;6.60;1.98;;;;;;;12.55;48.03;101781.63;5001235;28;20034;-61
2021/11/22 02:27:42;;;;;;;8.55;1.40;;;;;;;12.56;47.97;101786.88;5000795;28;20042;-61
2021/11/22 02:30:09;;;;;;;6.80;1.63;;;;;;;12.56;47.78;101799.47;5001086;28;20438;-61
2021/11/22 02:32:36;;;;;;;2.28;1.33;;;;;;;12.56;48.33;101800.31;5016036;28;20112;-61
2021/11/22 02:35:02;;;;;;;2.25;1.35;;;;;;;12.57;47.72;101801.16;5000139;28;20491;-61
2021/11/22 02:37:28;;;;;;;4.50;1.50;;;;;;;12.59;48.04;101804.63;4999586;28;20034;-61
2021/11/22 02:39:53;;;;;;;6.45;1.80;;;;;;;12.61;47.85;101802.66;4999398;28;20547;-61
2021/11/22 02:42:28;;;;;;;4.97;1.58;;;;;;;12.62;48.58;101810.59;4999281;28;20545;-61
2021/11/22 02:44:54;;;;;;;2.17;1.10;;;;;;;12.64;48.05;101821.25;4999380;28;20077;-61
2021/11/22 02:47:21;;;;;;;8.85;1.83;;;;;;;12.67;48.92;101812.94;4999761;28;20038;-61
2021/11/22 02:49:46;;;;;;;5.63;1.00;;;;;;;12.65;48.33;101809.50;5000857;28;20029;-62
2021/11/22 02:52:12;;;;;;;5.18;1.75;;;;;;;12.70;48.31;101818.91;5000610;28;20080;-61
2021/11/22 02:54:38;;;;;;;4.40;1.25;;;;;;;12.69;48.14;101816.38;4983604;28;20487;-62
2021/11/22 02:57:04;;;;;;;2.55;1.10;;;;;;;12.69;47.83;101811.84;4999412;28;20032;-61
2021/11/22 02:59:29;;;;;;;3.13;1.35;;;;;;;12.74;48.42;101816.84;4999221;28;20034;-61
2021/11/22 03:01:54;;;;;;;7.93;1.88;;;;;;;12.74;48.63;101830.31;5000903;28;20096;-63
2021/11/22 03:04:31;;;;;;;6.10;1.48;;;;;;;12.75;48.99;101832.03;5000816;28;20034;-62
2021/11/22 03:06:56;;;;;;;3.28;1.77;;;;;;;12.77;49.17;101830.94;5000715;28;20096;-62
2021/11/22 03:09:22;;;;;;;6.22;1.88;;;;;;;12.76;48.85;101818.44;4999346;28;20038;-61
2021/11/22 03:11:47;;;;;;;6.43;1.88;;;;;;;12.79;48.64;101844.25;4999673;28;20490;-61
2021/11/22 03:14:12;;;;;;;5.57;2.20;;;;;;;12.79;48.64;101846.94;5000148;28;20451;-62
2021/11/22 03:16:38;;;;;;;7.57;2.17;;;;;;;12.78;49.01;101848.78;4995377;28;20034;-62
2021/11/22 03:19:03;;;;;;;9.85;3.10;;;;;;;12.77;48.66;101851.56;4997005;28;20050;-61
2021/11/22 03:21:28;;;;;;;4.00;2.13;;;;;;;12.75;48.85;101864.28;4996938;28;20480;-61
2021/11/22 03:23:54;;;;;;;6.78;1.98;;;;;;;12.78;49.25;101853.31;4995779;28;20034;-61
2021/11/22 03:26:19;;;;;;;10.88;2.38;;;;;;;12.80;49.52;101859.41;4995953;28;20033;-61
2021/11/22 03:28:45;;;;;;;6.47;2.85;;;;;;;12.79;48.94;101873.81;4996006;28;20036;-61
2021/11/22 03:31:10;;;;;;;7.72;2.17;;;;;;;12.78;49.37;101869.44;4996972;28;20111;-61
2021/11/22 03:33:35;;;;;;;2.95;1.48;;;;;;;12.81;48.46;101871.88;4995623;28;20472;-61
2021/11/22 03:36:01;;;;;;;3.50;1.65;;;;;;;12.85;48.49;101876.03;4997026;28;20098;-61
2021/11/22 03:38:29;;;;;;;6.20;1.80;;;;;;;12.81;49.35;101874.56;4996612;28;20450;-60
2021/11/22 03:40:56;;;;;;;3.20;1.58;;;;;;;12.83;48.65;101884.25;4997008;28;20038;-62
2021/11/22 03:46:15;;;;;;;5.78;2.25;;;;;;;12.81;48.22;101879.97;4994970;28;20050;-61
2021/11/22 03:48:40;;;;;;;3.00;1.95;;;;;;;12.87;49.11;101887.53;4996923;28;20081;-61
2021/11/22 03:51:06;;;;;;;3.45;2.15;;;;;;;12.91;48.45;101907.84;4996023;28;20054;-61
2021/11/22 03:53:31;;;;;;;4.03;1.88;;;;;;;12.91;49.37;101907.84;4995533;28;20121;-61
2021/11/22 03:55:57;;;;;;;4.60;2.17;;;;;;;12.91;48.98;101904.28;4995461;28;20113;-61
2021/11/22 03:58:23;;;;;;;2.85;1.77;;;;;;;12.95;49.25;101909.34;4995399;28;20030;-62
2021/11/22 04:00:49;;;;;;;3.92;1.70;;;;;;;12.97;48.74;101911.88;4995304;28;20034;-61
2021/11/22 04:03:14;;;;;;;4.82;2.50;;;;;;;13.00;48.39;101923.28;4995316;28;20072;-61
2021/11/22 04:05:39;;;;;;;3.10;1.85;;;;;;;13.02;48.35;101929.38;4995783;28;20038;-61
2021/11/22 04:08:07;;;;;;;4.18;1.95;;;;;;;13.02;48.35;101932.06;4996306;28;20041;-61
2021/11/22 04:10:33;;;;;;;4.32;2.15;;;;;;;13.03;48.76;101925.72;5011269;28;20026;-61
2021/11/22 04:12:58;;;;;;;3.63;1.98;;;;;;;13.03;49.46;101933.81;4995014;28;20453;-61
2021/11/22 04:15:24;;;;;;;11.15;2.10;;;;;;;13.04;49.15;101940.88;4996732;28;20490;-61
2021/11/22 04:17:49;;;;;;;6.55;2.30;;;;;;;13.06;49.46;101943.47;4996866;28;20113;-62
2021/11/22 04:20:14;;;;;;;4.40;2.78;;;;;;;13.07;49.46;101940.69;4996705;28;20054;-61
2021/11/22 04:22:40;;;;;;;5.38;2.83;;;;;;;13.08;49.36;101942.41;4996545;28;20034;-61
2021/11/22 04:25:06;;;;;;;8.00;2.80;;;;;;;13.10;48.28;101956.59;4997242;28;20031;-61
2021/11/22 04:27:33;;;;;;;4.95;2.55;;;;;;;13.10;49.14;101951.19;4993991;28;20063;-61
2021/11/22 04:29:58;;;;;;;5.80;3.00;;;;;;;13.07;48.88;101951.44;4996072;28;20092;-61
2021/11/22 04:32:24;;;;;;;6.97;3.50;;;;;;;13.03;48.39;101958.00;4996006;28;20037;-61
2021/11/22 04:34:49;;;;;;;9.05;3.15;;;;;;;13.05;49.03;101958.75;4978538;28;20471;-62
2021/11/22 04:37:15;;;;;;;5.65;3.30;;;;;;;13.04;48.69;101970.47;4994741;28;20045;-61
2021/11/22 04:39:40;;;;;;;4.38;2.78;;;;;;;13.05;48.99;101963.25;4994900;28;20056;-61
2021/11/22 04:42:05;;;;;;;6.05;3.47;;;;;;;13.11;49.16;101974.44;4977787;28;20037;-61
2021/11/22 04:44:31;;;;;;;8.30;4.65;;;;;;;13.13;49.10;101977.00;4995703;28;20034;-61
2021/11/22 04:46:57;;;;;;;5.63;3.17;;;;;;;13.13;48.27;101990.47;4995633;28;20030;-62
2021/11/22 04:49:22;;;;;;;5.80;3.30;;;;;;;13.08;49.03;101982.75;4995937;28;20462;-61
2021/11/22 04:51:47;;;;;;;7.68;2.72;;;;;;;13.08;48.87;101985.44;4994345;28;20069;-61
2021/11/22 04:54:13;;;;;;;5.00;3.25;;;;;;;13.13;48.32;101983.25;4995593;28;20038;-61
2021/11/22 04:56:38;;;;;;;6.18;3.70;;;;;;;13.14;48.78;101995.75;4977967;28;20487;-62
2021/11/22 04:59:04;;;;;;;7.93;3.15;;;;;;;13.20;48.61;102000.66;4978162;28;20045;-61
2021/11/22 05:01:30;;;;;;;5.40;3.20;;;;;;;13.23;49.42;102000.38;4995609;28;20148;-60
2021/11/22 05:03:55;;;;;;;4.90;2.80;;;;;;;13.23;49.27;101995.00;4995827;28;20026;-61
2021/11/22 05:06:21;;;;;;;7.57;2.55;;;;;;;13.30;49.40;101998.97;4994466;28;20041;-61
2021/11/22 05:08:46;;;;;;;6.78;3.17;;;;;;;13.30;48.49;102001.66;4995549;28;20034;-63
2021/11/22 05:11:11;;;;;;;6.45;2.83;;;;;;;13.33;48.55;102003.25;4978604;28;20125;-61
2021/11/22 05:13:37;;;;;;;7.22;3.30;;;;;;;13.35;48.78;102007.53;4994322;28;20046;-61
2021/11/22 05:16:02;;;;;;;5.07;2.80;;;;;;;13.33;49.30;102012.19;4994473;28;20034;-62
2021/11/22 05:18:28;;;;;;;3.78;2.83;;;;;;;13.32;48.48;102010.47;4993910;28;20034;-62
2021/11/22 05:20:53;;;;;;;4.25;2.95;;;;;;;13.30;48.73;102017.81;4994355;28;20466;-62
2021/11/22 05:23:19;;;;;;;4.95;2.75;;;;;;;13.30;48.43;102017.81;4995077;28;20110;-62
2021/11/22 05:25:44;;;;;;;4.68;2.90;;;;;;;13.30;48.28;102033.94;4995126;28;20060;-61
2021/11/22 05:28:10;;;;;;;4.53;3.08;;;;;;;13.31;48.69;102038.38;4994062;28;20407;-62
2021/11/22 05:30:36;;;;;;;5.25;2.65;;;;;;;13.32;48.76;102042.75;5011061;28;20018;-62
2021/11/22 05:33:02;;;;;;;5.35;3.35;;;;;;;13.32;49.61;102041.88;5010292;28;20026;-63
2021/11/22 05:35:28;;;;;;;4.45;2.40;;;;;;;13.34;49.60;102050.72;4977224;28;20030;-62
2021/11/22 05:37:54;;;;;;;5.97;2.78;;;;;;;13.29;49.13;102045.66;4994998;28;20037;-61
2021/11/22 05:40:20;;;;;;;4.93;3.10;;;;;;;13.29;48.33;102061.81;4995045;28;20018;-62
2021/11/22 05:42:46;;;;;;;6.65;3.28;;;;;;;13.28;49.18;102064.63;4995382;28;20033;-61
2021/11/22 05:45:12;;;;;;;5.82;2.60;;;;;;;13.27;49.18;102066.47;4993613;28;20030;-62
2021/11/22 05:47:40;;;;;;;6.75;3.15;;;;;;;13.27;49.17;102061.09;4993959;28;20509;-63
2021/11/22 05:50:07;;;;;;;7.65;3.33;;;;;;;13.24;49.29;102069.38;4995142;28;20034;-62
2021/11/22 05:52:35;;;;;;;6.03;3.80;;;;;;;13.21;49.45;102072.31;4995202;28;20110;-62
2021/11/22 05:55:05;;;;;;;10.15;3.28;;;;;;;13.19;49.12;102063.50;4993307;28;20030;-62
2021/11/22 05:57:30;;;;;;;5.10;3.05;;;;;;;13.20;48.61;102076.00;4994671;28;20030;-61
2021/11/22 05:59:56;;;;;;;6.25;3.22;;;;;;;13.22;48.75;102071.34;4994518;28;20030;-62
2021/11/22 06:02:21;;;;;;;4.38;2.70;;;;;;;13.19;49.57;102084.16;4977010;28;20545;-61
2021/11/22 06:04:47;;;;;;;6.63;3.70;;;;;;;13.16;48.67;102079.88;4995062;28;20037;-63
2021/11/22 06:07:13;;;;;;;6.38;3.53;;;;;;;13.16;47.92;102085.25;4993494;28;20022;-62
2021/11/22 06:09:38;;;;;;;5.60;3.22;;;;;;;13.13;49.23;102074.72;4994732;28;20049;-61
2021/11/22 06:12:04;;;;;;;5.97;3.75;;;;;;;13.14;48.54;102081.81;4993264;28;20100;-62
2021/11/22 06:14:29;;;;;;;5.22;3.42;;;;;;;13.06;49.40;102076.13;4994050;28;20031;-61
2021/11/22 06:16:55;;;;;;;5.97;4.10;;;;;;;13.05;48.95;102082.47;4993463;28;20050;-61
2021/11/22 06:19:21;;;;;;;5.13;3.45;;;;;;;13.11;48.89;102091.94;4994621;28;20084;-62
2021/11/22 06:21:46;;;;;;;4.85;3.25;;;;;;;13.13;48.36;102095.38;5009660;28;20030;-61
2021/11/22 06:24:12;;;;;;;6.53;3.63;;;;;;;13.11;48.12;102092.81;4993647;28;20029;-62
2021/11/22 06:26:38;;;;;;;5.20;3.60;;;;;;;13.10;48.28;102099.16;5010101;28;20058;-62
2021/11/22 06:29:03;;;;;;;7.25;3.35;;;;;;;13.07;48.45;102102.06;5010214;28;20065;-61
2021/11/22 06:31:28;;;;;;;4.28;3.15;;;;;;;13.05;48.34;102098.63;4994135;28;20030;-61
2021/11/22 06:33:54;;;;;;;5.47;3.65;;;;;;;13.02;48.02;102104.22;4977037;28;20038;-61
2021/11/22 06:36:19;;;;;;;5.55;3.00;;;;;;;12.99;48.26;102107.13;4994868;28;20053;-62
2021/11/22 06:38:45;;;;;;;3.70;2.90;;;;;;;12.98;48.98;102113.47;4994519;28;20027;-61
2021/11/22 06:41:10;;;;;;;4.03;2.88;;;;;;;12.96;49.01;102104.66;4994491;28;20112;-62
2021/11/22 06:43:36;;;;;;;14.07;3.85;;;;;;;12.96;47.98;102120.81;5009742;28;20031;-62
2021/11/22 06:46:01;;;;;;;5.13;2.92;;;;;;;12.98;48.51;102118.84;4993545;28;20542;-62
2021/11/22 06:48:27;;;;;;;3.60;2.53;;;;;;;12.98;48.09;102135.00;4993656;28;20372;-62
2021/11/22 06:50:52;;;;;;;4.82;3.30;;;;;;;12.97;47.92;102133.28;4996108;28;20376;-62
2021/11/22 06:53:21;;;;;;;7.22;3.20;;;;;;;13.01;47.64;102134.75;4996717;28;20029;-62
2021/11/22 06:55:49;;;;;;;6.50;3.50;;;;;;;12.97;48.39;102138.66;4997093;28;20033;-62
2021/11/22 06:58:15;;;;;;;8.27;3.38;;;;;;;13.01;48.19;102150.06;4997241;28;20032;-62
2021/11/22 07:00:40;;;;;;;6.45;3.97;;;;;;;13.00;48.07;102159.97;4980264;28;20483;-62
2021/11/22 07:03:06;;;;;;;4.07;2.92;;;;;;;12.92;47.73;102151.59;4996384;28;20030;-62
2021/11/22 07:05:32;;;;;;;5.88;3.00;;;;;;;12.98;48.50;102164.56;4997540;28;20023;-63
2021/11/22 07:07:58;;;;;;;7.18;3.15;;;;;;;12.92;47.85;102165.06;4998092;28;20031;-62
2021/11/22 07:10:24;;;;;;;5.75;3.40;;;;;;;12.92;47.90;102177.63;4996193;28;20030;-61
2021/11/22 07:12:51;;;;;;;4.95;3.60;;;;;;;12.90;48.75;102180.41;4997195;28;20145;-61
2021/11/22 07:15:20;;;;;;;6.47;3.15;;;;;;;12.89;47.81;102183.22;4996450;28;20049;-61
2021/11/22 07:17:46;;;;;;;12.45;3.05;;;;;;;12.86;48.45;102189.69;4997651;28;20076;-61
2021/11/22 07:20:12;;;;;;;9.20;3.30;;;;;;;12.85;48.64;102201.41;4997347;28;20054;-62
2021/11/22 07:22:37;;;;;;;4.82;3.10;;;;;;;12.82;48.19;102198.94;4997327;28;20310;-62
2021/11/22 07:25:04;;;;;;;6.97;3.03;;;;;;;12.80;48.62;102211.63;4997603;28;20038;-62
2021/11/22 07:27:29;;;;;;;6.68;3.92;;;;;;;12.77;48.89;102211.84;4997706;28;20041;-63
2021/11/22 07:29:56;;;;;;;5.63;3.80;;;;;;;12.76;47.79;102215.50;4996365;28;20383;-62
2021/11/22 07:32:22;;;;;;;6.60;3.72;;;;;;;12.74;48.35;102217.44;4997480;28;20023;-62
2021/11/22 07:34:48;;;;;;;6.15;3.47;;;;;;;12.72;48.22;102219.41;5012157;28;20101;-62
2021/11/22 07:37:13;;;;;;;8.88;4.05;;;;;;;12.70;48.02;102221.34;4996206;28;20060;-62
2021/11/22 07:39:38;;;;;;;5.05;3.78;;;;;;;12.66;48.53;102225.19;4997487;28;20022;-63
2021/11/22 07:42:04;;;;;;;8.27;3.40;;;;;;;12.66;49.04;102230.56;4982382;28;20062;-62
2021/11/22 07:44:29;;;;;;;9.88;3.78;;;;;;;12.66;48.19;102238.63;4998415;28;20097;-62
2021/11/22 07:46:57;;;;;;;5.43;3.45;;;;;;;12.67;48.11;102238.50;4996954;28;20443;-62
2021/11/22 07:49:22;;;;;;;5.65;3.50;;;;;;;12.69;48.43;102246.50;5012105;28;20030;-62
2021/11/22 07:51:48;;;;;;;6.78;4.35;;;;;;;12.70;48.26;102248.22;4996790;28;20027;-63
2021/11/22 07:54:15;;;;;;;6.25;3.75;;;;;;;12.69;47.70;102252.72;4996041;28;20045;-62
2021/11/22 07:56:40;;;;;;;7.32;3.35;;;;;;;12.70;48.64;102257.13;4997170;28;20394;-62
2021/11/22 07:59:05;;;;;;;4.90;3.55;;;;;;;12.67;48.45;102259.19;4996975;28;20034;-62
2021/11/22 08:01:31;;;;;;;6.18;3.58;;;;;;;12.67;47.60;102272.63;4995593;28;20034;-62
2021/11/22 08:03:56;;;;;;;8.35;3.60;;;;;;;12.68;49.06;102280.56;4997135;28;20446;-63
2021/11/22 08:06:24;;;;;;;8.13;3.72;;;;;;;12.69;48.94;102276.06;4996472;28;20044;-62
2021/11/22 08:08:49;;;;;;;5.57;3.55;;;;;;;12.70;48.55;102280.50;4996461;28;20057;-62
2021/11/22 08:13:41;;;;;;;5.72;3.35;;;;;;;12.82;48.28;102279.59;4996570;28;20030;-62
2021/11/22 08:16:08;;;;;;;7.60;3.45;;;;;;;12.89;48.25;102297.03;5011780;28;20027;-63
2021/11/22 08:18:36;;;;;;;8.52;3.67;;;;;;;12.88;48.81;102284.56;4995111;28;20052;-62
2021/11/22 08:21:03;;;;;;;6.93;3.90;;;;;;;12.94;48.73;102300.25;4996338;28;20045;-62
2021/11/22 08:23:28;;;;;;;4.90;3.67;;;;;;;12.92;47.96;102293.28;4995971;28;20030;-62
2021/11/22 08:25:55;;;;;;;9.95;3.47;;;;;;;12.99;48.57;102322.31;4994708;28;20034;-62
2021/11/22 08:28:21;;;;;;;5.15;3.20;;;;;;;13.01;48.28;102323.06;4995093;28;20048;-62
2021/11/22 08:30:47;;;;;;;4.90;3.72;;;;;;;12.98;47.87;102322.44;5011446;28;20025;-62
2021/11/22 08:33:14;;;;;;;4.60;2.67;;;;;;;13.00;48.71;102337.50;4994519;28;20026;-62
2021/11/22 08:35:41;;;;;;;4.00;2.58;;;;;;;13.00;48.83;102331.25;4994548;28;20031;-62
2021/11/22 08:38:06;;;;;;;10.13;2.90;;;;;;;13.04;47.81;102340.81;4995624;28;20105;-62
2021/11/22 08:40:33;;;;;;;3.85;2.33;;;;;;;13.08;49.19;102345.91;4994430;28;20066;-62
2021/11/22 08:42:58;;;;;;;4.72;2.78;;;;;;;13.13;48.24;102345.56;4995789;28;20030;-64
2021/11/22 08:45:24;;;;;;;2.78;2.28;;;;;;;13.14;47.65;102341.94;4995756;28;20048;-62
2021/11/22 08:47:50;;;;;;;3.35;2.13;;;;;;;13.22;47.97;102347.63;4995625;28;20026;-62
2021/11/22 08:50:17;;;;;;;3.35;2.33;;;;;;;13.23;47.78;102350.19;4995751;28;20022;-62
2021/11/22 08:52:43;;;;;;;5.50;2.25;;;;;;;13.31;48.76;102358.59;5010947;28;20025;-61
2021/11/22 08:55:10;;;;;;;3.63;2.47;;;;;;;13.39;48.64;102371.50;4995434;28;20391;-63
2021/11/22 08:57:35;;;;;;;9.63;5.22;;;;;;;13.36;49.04;102374.41;4995340;28;20031;-62
2021/11/22 09:00:05;;;;;;;12.35;6.82;;;;;;;13.35;47.40;102381.63;4995349;28;20042;-62
2021/11/22 09:02:30;;;;;;;16.08;7.25;;;;;;;13.25;48.18;102377.88;4994051;28;20030;-61
2021/11/22 09:04:56;;;;;;;13.68;6.97;;;;;;;13.15;48.07;102366.03;4993697;28;20037;-62
2021/11/22 09:07:21;;;;;;;12.52;7.00;;;;;;;13.19;48.02;102386.38;4995437;28;20530;-63
2021/11/22 09:09:46;;;;;;;14.25;6.85;;;;;;;13.18;48.33;102387.34;4995279;28;20030;-62
2021/11/22 09:12:12;;;;;;;14.02;6.78;;;;;;;13.16;48.11;102393.78;4995217;28;20029;-62
2021/11/22 09:14:37;;;;;;;16.55;7.80;;;;;;;13.09;48.64;102395.22;4977058;28;20030;-62
2021/11/22 09:17:03;;;;;;;17.45;7.72;;;;;;;13.13;47.59;102400.25;4995283;28;20487;-62
2021/11/22 09:19:30;;;;;;;13.68;6.82;;;;;;;13.11;47.82;102409.41;4995022;28;20125;-63
2021/11/22 09:21:56;;;;;;;15.52;7.80;;;;;;;13.06;48.28;102390.88;4993571;28;20049;-62
2021/11/22 09:24:21;;;;;;;14.43;8.43;;;;;;;13.10;48.02;102405.84;4995087;28;20027;-62
2021/11/22 09:26:46;;;;;;;18.20;8.20;;;;;;;13.12;47.25;102401.22;4994686;28;20041;-62
2021/11/22 09:29:12;;;;;;;15.27;7.45;;;;;;;13.19;47.97;102405.22;4993979;28;20145;-62
2021/11/22 09:31:37;;;;;;;16.00;7.45;;;;;;;13.15;47.79;102403.69;4993757;28;20394;-63
2021/11/22 09:34:03;;;;;;;15.48;7.43;;;;;;;13.20;47.59;102409.63;4995278;28;20466;-61
2021/11/22 09:36:28;;;;;;;16.17;7.78;;;;;;;13.32;48.37;102413.28;4994894;28;20038;-61
2021/11/22 09:38:54;;;;;;;19.80;8.23;;;;;;;13.37;47.24;102411.13;4994974;28;20116;-62
2021/11/22 09:41:25;;;;;;;14.15;7.18;;;;;;;13.43;47.39;102420.63;4993240;28;20080;-61
2021/11/22 09:43:51;;;;;;;16.02;7.95;;;;;;;13.49;48.25;102422.84;4994718;28;20080;-62
2021/11/22 09:46:16;;;;;;;16.25;7.75;;;;;;;13.51;47.50;102426.31;4993670;28;20120;-61
2021/11/22 09:48:42;;;;;;;15.45;7.60;;;;;;;13.55;47.10;102435.88;4994808;28;20026;-61
2021/11/22 09:51:10;;;;;;;20.98;7.75;;;;;;;13.62;47.64;102432.66;4994873;28;20023;-61
2021/11/22 09:53:36;;;;;;;14.32;7.68;;;;;;;13.60;47.61;102434.56;4993837;28;20395;-61
2021/11/22 09:56:02;;;;;;;17.85;8.23;;;;;;;13.72;46.74;102422.06;4995028;28;20439;-62
2021/11/22 09:58:27;;;;;;;18.65;7.60;;;;;;;13.77;46.64;102436.06;4994690;28;20061;-60
2021/11/22 10:00:55;;;;;;;18.27;8.50;;;;;;;13.77;47.34;102431.53;4995278;28;20105;-61
2021/11/22 10:03:23;;;;;;;16.17;7.57;;;;;;;13.90;47.39;102435.06;4993919;28;20479;-61
2021/11/22 10:05:55;;;;;;;16.45;8.27;;;;;;;13.84;47.29;102429.28;4995011;28;20030;-61
2021/11/22 10:08:24;;;;;;;14.48;7.25;;;;;;;13.77;47.76;102425.28;4993557;28;20022;-61
2021/11/22 10:10:54;;;;;;;17.65;7.97;;;;;;;13.79;47.49;102439.53;4993526;28;20033;-62
2021/11/22 10:13:29;;;;;;;17.40;8.27;;;;;;;13.83;47.37;102441.00;4994650;28;20386;-62
2021/11/22 10:16:01;;;;;;;16.58;8.20;;;;;;;13.85;47.60;102428.28;4977367;28;20030;-62
2021/11/22 10:18:29;;;;;;;14.23;8.15;;;;;;;14.07;46.54;102443.78;4976983;28;20030;-61
2021/11/22 10:20:55;;;;;;;20.20;9.30;;;;;;;14.13;47.83;102436.06;4993594;28;20031;-61
2021/11/22 10:23:26;;;;;;;15.48;7.95;;;;;;;14.40;46.18;102435.94;4993458;28;20030;-61
2021/11/22 10:25:53;;;;;;;16.38;8.05;;;;;;;14.46;47.04;102439.00;4996695;28;20065;-60
2021/11/22 10:28:22;;;;;;;15.65;7.22;;;;;;;14.52;45.99;102443.94;4998410;28;20019;-60
2021/11/22 10:30:55;;;;;;;15.82;8.07;;;;;;;14.75;46.31;102455.69;4997417;28;20506;-61
2021/11/22 10:33:23;;;;;;;17.35;8.68;;;;;;;14.97;45.22;102453.06;4997343;28;20022;-62
2021/11/22 10:35:52;;;;;;;14.77;7.18;;;;;;;15.84;44.51;102448.94;4997224;28;20475;-61
2021/11/22 10:38:26;;;;;;;13.30;7.45;;;;;;;16.51;43.73;102445.13;4998601;28;20443;-61
2021/11/22 10:41:09;;;;;;;12.95;8.43;;;;;;;17.11;44.16;102432.84;4980784;28;20162;-61
2021/11/22 10:43:49;;;;;;;16.17;8.43;;;;;;;17.77;44.05;102445.94;4998440;28;20026;-61
2021/11/22 10:46:15;;;;;;;16.17;8.75;;;;;;;18.30;42.72;102437.53;4998494;28;20093;-61
2021/11/22 10:48:47;;;;;;;15.20;8.35;;;;;;;18.43;42.94;102429.97;4983544;28;20041;-60
2021/11/22 10:51:27;;;;;;;17.63;9.95;;;;;;;18.98;42.53;102432.00;4998117;28;20034;-62
2021/11/22 10:53:58;;;;;;;14.35;8.27;;;;;;;19.37;42.24;102430.09;4998373;28;20022;-62
2021/11/22 10:56:27;;;;;;;15.98;9.18;;;;;;;19.75;41.70;102435.44;4997908;28;20106;-62
2021/11/22 10:58:57;;;;;;;14.80;7.78;;;;;;;20.06;41.10;102440.59;4998429;28;20030;-62
2021/11/22 11:01:34;;;;;;;12.30;8.23;;;;;;;20.20;41.00;102435.50;4990867;28;20113;-62
2021/11/22 11:04:13;;;;;;;13.75;9.05;;;;;;;20.42;40.77;102436.09;4977090;28;20437;-61
2021/11/22 11:07:06;;;;;;;17.00;8.43;;;;;;;20.51;40.78;102425.16;4978076;28;20488;-61
2021/11/22 11:09:37;;;;;;;13.68;7.57;;;;;;;20.65;40.01;102431.91;4977807;28;20037;-62
2021/11/22 11:12:05;;;;;;;14.38;7.53;;;;;;;20.70;40.86;102435.03;4977976;28;20033;-63
2021/11/22 11:14:32;;;;;;;10.25;6.78;;;;;;;20.74;40.67;102426.38;4977815;28;20536;-63
2021/11/22 11:17:21;;;;;;;13.95;7.10;;;;;;;20.77;40.30;102425.22;4960585;28;20030;-62
2021/11/22 11:19:50;;;;;;;12.70;7.03;;;;;;;20.77;39.87;102422.50;4977757;28;20469;-62
2021/11/22 11:22:16;;;;;;;12.15;6.57;;;;;;;20.81;39.89;102421.16;4977967;28;20027;-62
2021/11/22 11:24:43;;;;;;;15.20;6.53;;;;;;;20.97;39.79;102434.91;4978001;28;20033;-63
2021/11/22 11:27:12;;;;;;;12.25;6.47;;;;;;;21.06;39.52;102439.44;4977693;28;20089;-63